Wetterdaten: aktuell Samstag, 05.09.2026 18:00
Datum Zeit Temperatur Temp. +5 cm Temp. -10 cm Feuchte A. Luftdruck Regen Wind Richtung Richtung Zeit Sonne UV-I Solarstrahlg Taupunkt Windchill Windböen
05.09.2026 18:00 17,8 °C 16,1 °C 17,2 °C 71 % 1019,0 hPa 0,0 l/m² 13,1 km/h (3 Bft) N-NW 329 ° 6 min 0,5 UV-I 84 W/m² 12,5 °C 17,8 °C 24,1 km/h (4 Bft)
05.09.2026 17:00 16,7 °C 14,4 °C 17,2 °C 75 % 1018,9 hPa 0,2 l/m² 9,2 km/h (2 Bft) N-NW 341 ° 0 min 0,0 UV-I 44 W/m² 12,2 °C 16,7 °C 16,1 km/h (3 Bft)
05.09.2026 16:00 20,9 °C 20,6 °C 17,2 °C 53 % 1017,8 hPa 0,0 l/m² 15,5 km/h (3 Bft) N-NW 334 ° 6 min 0,8 UV-I 190 W/m² 11,0 °C 20,9 °C 27,4 km/h (5 Bft)
05.09.2026 15:00 21,2 °C 21,7 °C 17,2 °C 52 % 1017,7 hPa 0,0 l/m² 12,9 km/h (3 Bft) N-NW 327 ° 10 min 1,7 UV-I 248 W/m² 10,9 °C 21,2 °C 24,1 km/h (4 Bft)
05.09.2026 14:00 20,7 °C 21,7 °C 17,2 °C 51 % 1017,6 hPa 0,0 l/m² 12,7 km/h (3 Bft) NW 316 ° 12 min 2,9 UV-I 411 W/m² 10,2 °C 20,7 °C 24,1 km/h (4 Bft)
05.09.2026 13:00 20,7 °C 21,7 °C 17,2 °C 51 % 1017,5 hPa 0,2 l/m² 14,8 km/h (3 Bft) W-NW 288 ° 14 min 2,1 UV-I 306 W/m² 10,2 °C 20,7 °C 27,4 km/h (5 Bft)
05.09.2026 12:00 19,5 °C 20,6 °C 16,7 °C 56 % 1017,6 hPa 0,0 l/m² 16,9 km/h (3 Bft) NW 309 ° 14 min 2,5 UV-I 332 W/m² 10,5 °C 19,5 °C 30,6 km/h (5 Bft)
05.09.2026 11:00 19,2 °C 18,3 °C 16,7 °C 62 % 1017,4 hPa 0,0 l/m² 15,5 km/h (3 Bft) W-NW 283 ° 34 min 1,3 UV-I 172 W/m² 11,7 °C 19,2 °C 29,0 km/h (5 Bft)
05.09.2026 10:00 18,9 °C 18,3 °C 16,7 °C 67 % 1017,1 hPa 0,0 l/m² 14,2 km/h (3 Bft) W-SW 250 ° 60 min 1,5 UV-I 668 W/m² 12,6 °C 18,9 °C 27,4 km/h (5 Bft)
05.09.2026 08:58 16,8 °C 15,0 °C 16,7 °C 75 % 1016,8 hPa 0,0 l/m² 8,8 km/h (2 Bft) W-NW 299 ° 48 min 0,9 UV-I 318 W/m² 12,3 °C 16,8 °C 16,1 km/h (3 Bft)
05.09.2026 07:58 14,7 °C 12,8 °C 16,7 °C 81 % 1016,3 hPa 0,0 l/m² 7,2 km/h (2 Bft) W-NW 285 ° 0 min 0,0 UV-I 46 W/m² 11,5 °C 14,7 °C 14,5 km/h (3 Bft)
05.09.2026 06:58 13,2 °C 10,6 °C 16,7 °C 82 % 1015,8 hPa 0,0 l/m² 4,8 km/h (1 Bft) W 267 ° 6 min 0,0 UV-I 25 W/m² 10,2 °C 13,2 °C 11,3 km/h (2 Bft)
05.09.2026 05:58 14,2 °C 11,7 °C 17,2 °C 79 % 1015,2 hPa 0,0 l/m² 5,7 km/h (2 Bft) W-NW 294 ° 0 min 0,0 UV-I 5 W/m² 10,6 °C 14,2 °C 8,0 km/h (2 Bft)
05.09.2026 04:58 14,8 °C 12,2 °C 17,2 °C 79 % 1014,9 hPa 0,0 l/m² 6,4 km/h (2 Bft) W-NW 287 ° 0 min 0,0 UV-I 5 W/m² 11,2 °C 14,8 °C 11,3 km/h (2 Bft)
05.09.2026 03:58 15,4 °C 12,8 °C 17,2 °C 78 % 1014,4 hPa 0,0 l/m² 9,4 km/h (2 Bft) W-NW 299 ° 0 min 0,0 UV-I 5 W/m² 11,6 °C 15,4 °C 19,3 km/h (3 Bft)
05.09.2026 02:58 15,9 °C 13,9 °C 17,8 °C 77 % 1014,1 hPa 0,0 l/m² 9,5 km/h (2 Bft) NW 305 ° 0 min 0,0 UV-I 5 W/m² 11,9 °C 15,9 °C 17,7 km/h (3 Bft)
05.09.2026 01:58 16,5 °C 14,4 °C 17,8 °C 80 % 1013,6 hPa 0,0 l/m² 5,4 km/h (2 Bft) NW 320 ° 0 min 0,0 UV-I 5 W/m² 13,0 °C 16,5 °C 9,7 km/h (2 Bft)
05.09.2026 00:58 16,5 °C 15,0 °C 17,8 °C 82 % 1013,1 hPa 0,0 l/m² 5,4 km/h (2 Bft) NW 308 ° 0 min 0,0 UV-I 5 W/m² 13,4 °C 16,5 °C 11,3 km/h (2 Bft)
05.09.2026 00:00 16,5 °C 15,0 °C 17,8 °C 86 % 1012,9 hPa 0,0 l/m² 5,1 km/h (1 Bft) NW 323 ° 0 min 0,0 UV-I 5 W/m² 14,1 °C 16,5 °C 11,3 km/h (2 Bft)
_ Min-Zeit 07:06 07:00 12:54 12:56 00:48 - 06:36 - - - - - 13:02 07:06 06:40
Minimum _ 13,2 °C 10,6 °C 16,7 °C 50 % 1012,9 hPa - 2,3 km/h (1 Bft) - - - - - 10,1 °C 13,2 °C 4,8 km/h (1 Bft)
_ Max-Zeit 14:52 14:52 17:18 00:04 17:14 16:52 16:40 - - 09:10 12:50 12:52 00:04 14:54 16:40
Maximum _ 21,9 °C 26,7 °C 17,8 °C 86 % 1019,2 hPa 0,2 l/m² 24,2 km/h
N (4 Bft)
- - 4 min 4,1 UV-I 958 W/m² 14,2 °C 21,8 °C 48,3 km/h
N (6 Bft)
Durchschnitt _ 17,4 °C 16,3 °C 17,1 °C 70 % 1016,2 hPa #0,4 l/m² 9,5 km/h (2 Bft) W-NW - #3:32 h 1,5 UV-I 163 W/m² 11,7 °C 17,4 °C 17,8 km/h (3 Bft)